Kezdőlap
METAR-TAF:

METAR-TAF

Repülőterek :

Spaa

Tomaszów Mazowiecki, Lengyelország

földrajzi szélesség: 51-35-04N, földrajzi hosszúság: 020-05-52E, magasság: 174 m

METAR: hiányzik

Idő: 00:02 (22:02 UTC)

Előrejelzés

A jelentés 2 órával és 2 perccel ezelõtt készült, 20:00 UTC
Az előrejelzés 21-én 21 óra UTC és 22-én 06 óra UTC között érvényes
Északi szél 8 kt
Látótávolság 10 km, vagy több
felhőtlen 1500 m magasságban, és nincs gomolyfelhõ

TAF: EPTM 212000Z 2121/2206 35008KT CAVOK

Meteorológiai megfigyelések és előrejelzések több, mint 4000 repülőtéren (METAR és TAF jelentéseket).

A térképen piros és sárga pontok jelzik az elérhető meteorológiai állomásokat.

Mozgassa az egeret a pont fölött, hogy megjelenjen az állomás neve.

Azután kattintson az időjárási megfigyelések és előrejelzések megtekintéséhez.

A térkép megváltoztatása: kattintson a fekete keresztel jelölt zöld gombra ráközelítéshez, a vonallal jelölt zöld gombra távolításhoz, vagy a zöld nyilakra a szomszédos térképek eléréséhez.


METAR-TAF: